createdAt,value
2018-10-21T00:01:51.028Z,98.40
2018-10-21T00:04:20.620Z,99.50
2018-10-21T00:06:50.179Z,98.70
2018-10-21T00:09:19.814Z,98.00
2018-10-21T00:11:49.422Z,97.60
2018-10-21T00:14:19.250Z,97.30
2018-10-21T00:16:48.980Z,97.60
2018-10-21T00:19:18.599Z,98.40
2018-10-21T00:21:48.291Z,98.20
2018-10-21T00:24:17.898Z,98.90
2018-10-21T00:26:47.619Z,97.90
2018-10-21T00:29:17.251Z,98.00
2018-10-21T00:31:47.486Z,98.50
2018-10-21T00:34:17.210Z,99.30
2018-10-21T00:36:46.840Z,98.30
2018-10-21T00:39:16.613Z,97.70
2018-10-21T00:41:46.269Z,98.30
2018-10-21T00:44:15.764Z,99.20
2018-10-21T00:46:45.477Z,99.90
2018-10-21T00:49:15.152Z,99.00
2018-10-21T00:51:45.069Z,99.50
2018-10-21T00:54:15.773Z,99.30
2018-10-21T00:56:47.351Z,99.90
2018-10-21T00:59:17.061Z,99.90
2018-10-21T01:01:46.679Z,99.90
2018-10-21T01:04:16.296Z,99.90
2018-10-21T01:06:45.961Z,99.40
2018-10-21T01:09:15.699Z,98.80
2018-10-21T01:11:45.139Z,99.10
2018-10-21T01:14:14.798Z,99.60
2018-10-21T01:16:44.305Z,98.80
2018-10-21T01:19:13.859Z,99.00
2018-10-21T01:21:44.263Z,99.20
2018-10-21T01:24:16.895Z,99.00
2018-10-21T01:26:46.594Z,98.70
2018-10-21T01:29:16.243Z,98.70
2018-10-21T01:31:45.808Z,98.30
2018-10-21T01:34:15.585Z,98.20
2018-10-21T01:36:45.128Z,98.30
2018-10-21T01:39:15.028Z,98.60
2018-10-21T01:41:44.711Z,98.30
2018-10-21T01:44:14.421Z,99.60
2018-10-21T01:46:44.010Z,99.00
2018-10-21T01:49:13.500Z,98.50
2018-10-21T01:51:43.251Z,97.90
2018-10-21T01:54:12.864Z,98.50
2018-10-21T01:56:42.396Z,98.10
2018-10-21T01:59:12.150Z,98.00
2018-10-21T02:01:41.920Z,98.20
2018-10-21T02:04:11.553Z,98.40
2018-10-21T02:06:41.394Z,98.20
2018-10-21T02:09:11.072Z,98.90
2018-10-21T02:11:40.703Z,98.80
2018-10-21T02:14:10.212Z,98.20
2018-10-21T02:16:39.774Z,98.70
2018-10-21T02:19:10.580Z,98.90
2018-10-21T02:21:40.254Z,99.00
2018-10-21T02:24:09.806Z,98.90
2018-10-21T02:26:39.416Z,99.60
2018-10-21T02:29:09.009Z,99.30
2018-10-21T02:31:38.539Z,99.60
2018-10-21T02:34:08.086Z,98.40
2018-10-21T02:36:37.751Z,98.60
2018-10-21T02:39:10.391Z,98.90
2018-10-21T02:42:00.429Z,98.00
2018-10-21T02:44:29.939Z,98.60
2018-10-21T02:46:59.489Z,99.20
2018-10-21T02:49:29.105Z,98.40
2018-10-21T02:52:04.253Z,98.60
2018-10-21T02:54:33.889Z,98.40
2018-10-21T02:57:04.549Z,98.50
2018-10-21T02:59:34.291Z,98.90
2018-10-21T03:02:04.115Z,99.10
2018-10-21T03:04:34.186Z,98.70
2018-10-21T03:07:03.772Z,98.50
2018-10-21T03:09:33.574Z,99.20
2018-10-21T03:12:03.287Z,99.00
2018-10-21T03:14:32.806Z,97.70
2018-10-21T03:17:02.415Z,98.00
2018-10-21T03:19:32.193Z,98.40
2018-10-21T03:22:01.970Z,97.80
2018-10-21T03:24:31.702Z,97.70
2018-10-21T03:27:07.827Z,97.30
2018-10-21T03:29:37.258Z,97.90
2018-10-21T03:32:07.335Z,98.50
2018-10-21T03:34:36.886Z,98.40
2018-10-21T03:37:06.685Z,99.00
2018-10-21T03:39:36.206Z,98.80
2018-10-21T03:42:05.760Z,99.40
2018-10-21T03:44:35.267Z,98.80
2018-10-21T03:47:04.925Z,98.70
2018-10-21T03:49:34.506Z,99.00
2018-10-21T03:52:04.115Z,99.10
2018-10-21T03:54:33.876Z,99.10
2018-10-21T03:57:03.449Z,99.50
2018-10-21T03:59:32.992Z,99.00
2018-10-21T04:02:02.539Z,99.00
2018-10-21T04:04:33.126Z,99.60
2018-10-21T04:07:02.825Z,99.20
2018-10-21T04:09:32.420Z,99.20
2018-10-21T04:12:02.025Z,97.90
2018-10-21T04:14:31.501Z,98.00
2018-10-21T04:17:01.159Z,97.90
2018-10-21T04:19:30.806Z,98.20
2018-10-21T04:22:00.657Z,98.50
2018-10-21T04:24:30.105Z,99.50
2018-10-21T04:26:59.845Z,98.70
2018-10-21T04:29:29.389Z,98.60
2018-10-21T04:31:59.016Z,98.90
2018-10-21T04:34:28.592Z,98.40
2018-10-21T04:37:12.152Z,98.00
2018-10-21T04:39:58.497Z,99.10
2018-10-21T04:42:28.009Z,98.50
2018-10-21T04:44:58.010Z,97.90
2018-10-21T04:47:27.940Z,98.10
2018-10-21T04:49:57.466Z,99.40
2018-10-21T04:52:27.746Z,98.80
2018-10-21T04:55:02.941Z,98.60
2018-10-21T04:57:32.500Z,99.30
2018-10-21T05:00:02.105Z,98.60
2018-10-21T05:02:32.402Z,98.50
2018-10-21T05:05:02.832Z,99.00
2018-10-21T05:07:32.472Z,98.30
2018-10-21T05:10:02.124Z,98.60
2018-10-21T05:12:31.587Z,99.10
2018-10-21T05:15:01.059Z,98.70
2018-10-21T05:17:30.894Z,98.00
2018-10-21T05:20:00.645Z,98.80
2018-10-21T05:22:30.202Z,99.10
2018-10-21T05:24:59.920Z,99.90
2018-10-21T05:27:29.496Z,99.30
2018-10-21T05:29:58.934Z,98.60
2018-10-21T05:32:28.526Z,98.60
2018-10-21T05:34:58.042Z,98.90
2018-10-21T05:37:27.744Z,99.00
2018-10-21T05:39:57.525Z,99.70
2018-10-21T05:42:26.996Z,99.70
2018-10-21T05:44:56.561Z,99.40
2018-10-21T05:47:26.272Z,99.30
2018-10-21T05:49:55.831Z,98.90
2018-10-21T05:52:25.875Z,99.20
2018-10-21T05:54:56.492Z,99.20
2018-10-21T05:57:26.056Z,99.80
2018-10-21T05:59:55.652Z,99.30
2018-10-21T06:02:25.316Z,99.90
2018-10-21T06:04:55.378Z,99.00
2018-10-21T06:07:24.971Z,98.10
2018-10-21T06:09:54.590Z,98.80
2018-10-21T06:12:24.540Z,99.00
2018-10-21T06:14:54.203Z,98.50
2018-10-21T06:17:28.541Z,98.20
2018-10-21T06:21:02.217Z,98.70
2018-10-21T06:23:31.731Z,98.80
2018-10-21T06:26:01.512Z,98.50
2018-10-21T06:28:31.016Z,99.00
2018-10-21T06:31:00.612Z,99.20
2018-10-21T06:33:30.154Z,98.30
2018-10-21T06:36:00.201Z,98.30
2018-10-21T06:38:29.713Z,98.50
2018-10-21T06:40:59.185Z,98.10
2018-10-21T06:43:30.037Z,98.60
2018-10-21T06:45:59.698Z,98.10
2018-10-21T06:48:29.512Z,98.80
2018-10-21T06:50:59.077Z,98.70
2018-10-21T06:53:28.604Z,98.60
2018-10-21T06:55:58.176Z,98.10
2018-10-21T06:58:27.682Z,98.50
2018-10-21T07:00:58.536Z,98.90
2018-10-21T07:06:26.235Z,99.40
2018-10-21T07:08:59.561Z,99.30
2018-10-21T07:11:29.200Z,99.10
2018-10-21T07:13:59.672Z,99.40
2018-10-21T07:16:29.403Z,99.70
2018-10-21T07:18:59.012Z,99.60
2018-10-21T07:21:29.181Z,99.60
2018-10-21T07:23:58.681Z,99.90
2018-10-21T07:26:28.341Z,99.10
2018-10-21T07:28:57.983Z,99.90
2018-10-21T07:31:27.764Z,99.90
2018-10-21T07:33:57.563Z,99.90
2018-10-21T07:36:27.290Z,99.90
2018-10-21T07:38:56.837Z,99.90
2018-10-21T07:41:26.788Z,99.90
2018-10-21T07:43:56.530Z,99.90
2018-10-21T07:46:26.474Z,99.90
2018-10-21T07:48:56.275Z,99.90
2018-10-21T07:51:25.812Z,99.90
2018-10-21T07:53:55.552Z,99.90
2018-10-21T07:56:26.316Z,99.90
2018-10-21T07:58:57.030Z,99.90
2018-10-21T08:01:26.821Z,99.90
2018-10-21T08:03:56.319Z,99.90
2018-10-21T08:06:42.692Z,99.90
2018-10-21T08:09:12.988Z,99.90
2018-10-21T08:11:42.709Z,99.90
2018-10-21T08:14:12.669Z,99.90
2018-10-21T08:16:42.646Z,99.90
2018-10-21T08:19:12.351Z,99.90
2018-10-21T08:21:42.027Z,99.90
2018-10-21T08:24:11.887Z,99.90
2018-10-21T08:26:41.581Z,99.80
2018-10-21T08:29:11.552Z,99.70
2018-10-21T08:31:41.229Z,99.50
2018-10-21T08:34:11.119Z,99.40
2018-10-21T08:36:40.984Z,99.90
2018-10-21T08:39:10.862Z,99.90
2018-10-21T08:41:40.647Z,99.80
2018-10-21T08:44:10.358Z,99.50
2018-10-21T08:46:40.386Z,99.30
2018-10-21T08:49:10.127Z,99.30
2018-10-21T08:51:39.953Z,99.30
2018-10-21T08:54:09.860Z,98.90
2018-10-21T08:56:39.608Z,99.00
2018-10-21T08:59:09.595Z,99.00
2018-10-21T09:01:39.443Z,98.70
2018-10-21T09:04:09.702Z,98.70
2018-10-21T09:06:39.394Z,98.50
2018-10-21T09:09:11.726Z,98.40
2018-10-21T09:11:42.072Z,98.40
2018-10-21T09:14:12.592Z,98.40
2018-10-21T09:16:42.485Z,97.90
2018-10-21T09:19:12.306Z,97.80
2018-10-21T09:21:42.092Z,97.90
2018-10-21T09:24:11.933Z,98.10
2018-10-21T09:26:41.826Z,97.80
2018-10-21T09:29:11.666Z,97.60
2018-10-21T09:31:41.392Z,99.90
2018-10-21T09:34:11.402Z,99.90
2018-10-21T09:36:41.294Z,99.90
2018-10-21T09:39:13.493Z,94.80
2018-10-21T09:41:43.994Z,94.90
2018-10-21T09:44:13.916Z,94.50
2018-10-21T09:46:43.658Z,94.60
2018-10-21T09:49:13.562Z,94.60
2018-10-21T09:51:43.611Z,94.40
2018-10-21T09:54:13.523Z,95.00
2018-10-21T09:56:43.551Z,94.80
2018-10-21T09:59:13.498Z,95.00
2018-10-21T10:01:48.746Z,95.10
2018-10-21T10:04:18.585Z,94.50
2018-10-21T10:06:48.736Z,94.40
2018-10-21T10:09:18.553Z,93.90
2018-10-21T10:11:48.657Z,93.60
2018-10-21T10:14:18.912Z,93.30
2018-10-21T10:16:48.931Z,93.20
2018-10-21T10:19:18.914Z,93.40
2018-10-21T10:21:48.875Z,93.00
2018-10-21T10:24:18.666Z,92.90
2018-10-21T10:26:48.821Z,93.40
2018-10-21T10:29:18.869Z,92.10
2018-10-21T10:31:48.825Z,91.90
2018-10-21T10:34:19.034Z,91.80
2018-10-21T10:36:48.774Z,91.50
2018-10-21T10:39:18.652Z,91.30
2018-10-21T10:41:48.615Z,90.90
2018-10-21T10:44:18.502Z,90.10
2018-10-21T10:46:48.379Z,90.30
2018-10-21T10:49:18.360Z,90.10
2018-10-21T10:51:48.399Z,89.70
2018-10-21T10:54:18.175Z,86.70
2018-10-21T10:56:48.354Z,87.00
2018-10-21T10:59:18.733Z,85.70
2018-10-21T11:01:48.863Z,85.70
2018-10-21T11:04:19.116Z,85.70
2018-10-21T11:06:49.498Z,86.10
2018-10-21T11:09:19.325Z,85.20
2018-10-21T11:11:49.466Z,84.30
2018-10-21T11:14:19.241Z,83.80
2018-10-21T11:16:49.241Z,83.70
2018-10-21T11:19:20.813Z,94.50
2018-10-21T11:21:51.042Z,95.80
2018-10-21T11:24:26.957Z,94.10
2018-10-21T11:26:57.403Z,88.20
2018-10-21T11:29:31.723Z,84.60
2018-10-21T11:32:01.542Z,88.50
2018-10-21T11:34:31.405Z,87.80
2018-10-21T11:37:01.256Z,90.20
2018-10-21T11:39:31.377Z,88.40
2018-10-21T11:42:01.170Z,83.20
2018-10-21T11:44:31.089Z,84.40
2018-10-21T11:47:01.072Z,83.40
2018-10-21T11:49:30.985Z,84.40
2018-10-21T11:52:00.918Z,81.10
2018-10-21T11:54:30.791Z,83.30
2018-10-21T11:57:00.513Z,81.70
2018-10-21T11:59:30.318Z,80.30
2018-10-21T12:06:58.062Z,83.30
2018-10-21T12:09:27.922Z,81.40
2018-10-21T12:11:57.808Z,83.00
2018-10-21T12:14:27.611Z,81.20
2018-10-21T12:16:57.365Z,83.00
2018-10-21T12:19:27.336Z,83.20
2018-10-21T12:21:57.245Z,78.00
2018-10-21T12:24:27.092Z,76.20
2018-10-21T12:26:56.958Z,78.50
2018-10-21T12:29:26.738Z,78.90
2018-10-21T12:31:56.802Z,79.60
2018-10-21T12:34:26.681Z,79.00
2018-10-21T12:36:56.668Z,75.30
2018-10-21T12:39:26.554Z,75.20
2018-10-21T12:41:56.643Z,75.40
2018-10-21T12:44:26.543Z,73.90
2018-10-21T12:46:56.544Z,73.00
2018-10-21T12:49:26.527Z,72.40
2018-10-21T12:51:56.317Z,71.10
2018-10-21T12:54:27.060Z,70.60
2018-10-21T12:56:58.137Z,71.10
2018-10-21T12:59:28.047Z,71.70
2018-10-21T13:01:58.063Z,71.60
2018-10-21T13:04:27.971Z,68.90
2018-10-21T13:06:58.011Z,69.10
2018-10-21T13:09:27.662Z,68.50
2018-10-21T13:11:57.402Z,67.30
2018-10-21T13:14:27.140Z,67.20
2018-10-21T13:16:57.241Z,67.80
2018-10-21T13:19:27.172Z,66.50
2018-10-21T13:21:57.228Z,67.60
2018-10-21T13:24:27.195Z,65.90
2018-10-21T13:26:57.120Z,66.50
2018-10-21T13:29:27.180Z,67.30
2018-10-21T13:31:57.218Z,66.70
2018-10-21T13:34:27.196Z,66.00
2018-10-21T13:36:57.425Z,64.50
2018-10-21T13:39:27.207Z,62.10
2018-10-21T13:41:57.205Z,63.10
2018-10-21T13:44:27.084Z,64.30
2018-10-21T13:46:56.856Z,64.30
2018-10-21T13:49:26.712Z,66.10
2018-10-21T13:51:56.507Z,65.60
2018-10-21T13:54:26.144Z,66.00
2018-10-21T13:56:55.934Z,65.60
2018-10-21T13:59:25.818Z,64.40
2018-10-21T14:01:55.612Z,63.30
2018-10-21T14:04:25.490Z,64.50
2018-10-21T14:06:55.201Z,63.60
2018-10-21T14:09:24.998Z,61.70
2018-10-21T14:11:54.644Z,61.30
2018-10-21T14:14:24.292Z,61.60
2018-10-21T14:16:54.149Z,61.30
2018-10-21T14:19:23.918Z,61.00
2018-10-21T14:21:53.578Z,61.30
2018-10-21T14:24:23.402Z,61.40
2018-10-21T14:26:53.149Z,59.80
2018-10-21T14:29:23.184Z,59.60
2018-10-21T14:31:52.827Z,59.10
2018-10-21T14:34:22.560Z,59.10
2018-10-21T14:36:52.327Z,59.50
2018-10-21T14:39:22.225Z,59.30
2018-10-21T14:41:52.029Z,60.60
2018-10-21T14:44:21.936Z,61.00
2018-10-21T14:46:52.030Z,60.30
2018-10-21T14:49:22.263Z,60.00
2018-10-21T14:51:52.368Z,59.20
2018-10-21T14:54:22.444Z,59.80
2018-10-21T14:56:52.310Z,61.60
2018-10-21T14:59:22.347Z,63.20
2018-10-21T15:01:52.314Z,64.30
2018-10-21T15:04:22.107Z,64.90
2018-10-21T15:06:52.134Z,76.40
2018-10-21T15:09:22.005Z,71.70
2018-10-21T15:11:51.924Z,70.70
2018-10-21T15:14:21.935Z,71.00
2018-10-21T15:16:52.088Z,70.80
2018-10-21T15:19:21.976Z,70.50
2018-10-21T15:21:51.801Z,70.80
2018-10-21T15:24:21.631Z,71.40
2018-10-21T15:26:51.374Z,71.90
2018-10-21T15:29:21.468Z,72.20
2018-10-21T15:31:51.244Z,73.00
2018-10-21T15:34:21.038Z,73.60
2018-10-21T15:36:50.866Z,74.00
2018-10-21T15:39:20.501Z,74.60
2018-10-21T15:41:50.620Z,74.10
2018-10-21T15:44:20.516Z,74.50
2018-10-21T15:46:50.215Z,74.30
2018-10-21T15:49:20.235Z,75.20
2018-10-21T15:51:50.188Z,75.70
2018-10-21T15:54:20.106Z,76.20
2018-10-21T15:56:49.915Z,76.30
2018-10-21T15:59:19.968Z,76.00
2018-10-21T16:01:49.687Z,76.10
2018-10-21T16:04:19.662Z,77.20
2018-10-21T16:06:49.544Z,77.90
2018-10-21T16:09:19.304Z,78.40
2018-10-21T16:11:49.089Z,78.70
2018-10-21T16:14:19.127Z,79.60
2018-10-21T16:16:49.009Z,80.40
2018-10-21T16:19:18.917Z,80.90
2018-10-21T16:21:48.820Z,82.80
2018-10-21T16:24:18.660Z,83.80
2018-10-21T16:31:46.367Z,85.00
2018-10-21T16:34:16.836Z,85.60
2018-10-21T16:36:47.048Z,86.30
2018-10-21T16:39:17.707Z,87.10
2018-10-21T16:41:48.355Z,87.00
2018-10-21T16:44:18.408Z,86.90
2018-10-21T16:46:48.575Z,87.10
2018-10-21T16:49:18.769Z,87.50
2018-10-21T16:51:49.291Z,87.80
2018-10-21T16:54:20.632Z,87.90
2018-10-21T16:56:50.946Z,88.40
2018-10-21T16:59:21.323Z,88.60
2018-10-21T17:01:51.515Z,89.10
2018-10-21T17:04:21.460Z,89.80
2018-10-21T17:06:51.303Z,90.10
2018-10-21T17:09:21.148Z,90.40
2018-10-21T17:11:51.693Z,90.40
2018-10-21T17:14:21.703Z,90.50
2018-10-21T17:16:51.562Z,90.60
2018-10-21T17:19:21.419Z,90.60
2018-10-21T17:21:51.395Z,90.70
2018-10-21T17:24:22.341Z,90.70
2018-10-21T17:26:52.240Z,90.70
2018-10-21T17:29:22.192Z,90.80
2018-10-21T17:31:51.944Z,90.80
2018-10-21T17:34:21.909Z,90.90
2018-10-21T17:36:51.859Z,91.10
2018-10-21T17:39:21.749Z,91.10
2018-10-21T17:41:51.993Z,91.40
2018-10-21T17:44:22.136Z,91.50
2018-10-21T17:46:51.994Z,91.60
2018-10-21T17:49:22.012Z,91.70
2018-10-21T17:51:53.051Z,91.90
2018-10-21T17:54:23.119Z,92.10
2018-10-21T17:56:58.605Z,91.80
2018-10-21T17:59:29.172Z,91.60
2018-10-21T18:01:59.432Z,91.70
2018-10-21T18:04:29.216Z,91.80
2018-10-21T18:06:59.326Z,91.90
2018-10-21T18:09:29.214Z,92.10
2018-10-21T18:11:59.270Z,92.40
2018-10-21T18:14:29.025Z,92.70
2018-10-21T18:16:59.065Z,92.80
2018-10-21T18:19:29.125Z,92.70
2018-10-21T18:21:59.259Z,92.80
2018-10-21T18:24:29.193Z,93.10
2018-10-21T18:26:59.005Z,93.20
2018-10-21T18:29:29.173Z,93.30
2018-10-21T18:31:59.085Z,93.30
2018-10-21T18:34:28.984Z,93.80
2018-10-21T18:36:58.929Z,93.60
2018-10-21T18:39:29.119Z,93.70
2018-10-21T18:41:58.910Z,93.70
2018-10-21T18:44:28.773Z,93.90
2018-10-21T18:46:58.655Z,94.10
2018-10-21T18:49:28.695Z,94.20
2018-10-21T18:51:58.833Z,94.10
2018-10-21T18:54:29.039Z,94.30
2018-10-21T18:56:59.232Z,94.10
2018-10-21T18:59:29.338Z,94.00
2018-10-21T19:02:00.338Z,93.90
2018-10-21T19:04:31.208Z,94.20
2018-10-21T19:07:01.244Z,99.90
2018-10-21T19:09:31.044Z,99.90
2018-10-21T19:12:00.863Z,99.90
2018-10-21T19:14:30.813Z,97.20
2018-10-21T19:17:01.239Z,95.20
2018-10-21T19:19:31.165Z,91.60
2018-10-21T19:22:01.216Z,91.70
2018-10-21T19:24:31.335Z,91.70
2018-10-21T19:27:01.257Z,92.40
2018-10-21T19:29:31.289Z,93.20
2018-10-21T19:32:01.356Z,93.90
2018-10-21T19:34:31.458Z,94.40
2018-10-21T19:37:01.619Z,94.80
2018-10-21T19:39:31.743Z,94.80
2018-10-21T19:42:01.860Z,95.00
2018-10-21T19:44:32.022Z,94.80
2018-10-21T19:47:01.920Z,95.00
2018-10-21T19:49:31.781Z,95.50
2018-10-21T19:52:01.762Z,95.00
2018-10-21T19:54:31.927Z,95.00
2018-10-21T19:57:01.806Z,94.90
2018-10-21T19:59:31.783Z,94.90
2018-10-21T20:02:01.943Z,95.20
2018-10-21T20:04:31.794Z,95.50
2018-10-21T20:07:02.348Z,95.80
2018-10-21T20:09:32.340Z,96.50
2018-10-21T20:12:02.450Z,96.80
2018-10-21T20:14:32.351Z,96.80
2018-10-21T20:17:02.498Z,96.40
2018-10-21T20:19:32.490Z,96.10
2018-10-21T20:22:02.454Z,95.90
2018-10-21T20:24:32.376Z,96.00
2018-10-21T20:27:02.394Z,95.80
2018-10-21T20:29:32.184Z,95.70
2018-10-21T20:32:02.036Z,95.90
2018-10-21T20:34:31.835Z,95.90
2018-10-21T20:37:01.940Z,96.10
2018-10-21T20:39:31.952Z,96.20
2018-10-21T20:42:01.915Z,96.50
2018-10-21T20:44:31.716Z,96.30
2018-10-21T20:47:01.501Z,96.50
2018-10-21T20:49:31.474Z,96.90
2018-10-21T20:52:01.291Z,97.40
2018-10-21T20:54:36.355Z,97.20
2018-10-21T20:57:11.121Z,96.80
2018-10-21T20:59:42.048Z,96.80
2018-10-21T21:02:13.060Z,97.10
2018-10-21T21:04:42.993Z,97.30
2018-10-21T21:07:12.973Z,97.10
2018-10-21T21:09:42.918Z,97.10
2018-10-21T21:12:13.089Z,97.20
2018-10-21T21:14:42.983Z,97.60
2018-10-21T21:17:12.744Z,97.80
2018-10-21T21:19:42.726Z,97.80
2018-10-21T21:22:12.550Z,98.00
2018-10-21T21:24:42.267Z,97.70
2018-10-21T21:27:12.067Z,97.40
2018-10-21T21:29:42.008Z,97.70
2018-10-21T21:32:11.691Z,97.60
2018-10-21T21:34:41.546Z,96.90
2018-10-21T21:37:11.306Z,96.70
2018-10-21T21:39:41.195Z,96.70
2018-10-21T21:42:11.362Z,96.80
2018-10-21T21:44:41.119Z,97.10
2018-10-21T21:47:11.045Z,97.50
2018-10-21T21:49:40.666Z,98.00
2018-10-21T21:52:10.696Z,98.40
2018-10-21T21:54:40.525Z,98.10
2018-10-21T21:57:10.526Z,98.30
2018-10-21T21:59:40.201Z,97.80
2018-10-21T22:02:09.918Z,97.50
2018-10-21T22:04:39.571Z,97.40
2018-10-21T22:07:09.755Z,97.50
2018-10-21T22:09:39.493Z,97.20
2018-10-21T22:12:09.173Z,97.70
2018-10-21T22:14:38.880Z,97.70
2018-10-21T22:17:08.715Z,97.60
2018-10-21T22:19:39.609Z,97.80
2018-10-21T22:22:09.486Z,98.20
2018-10-21T22:24:39.274Z,98.00
2018-10-21T22:27:09.147Z,98.30
2018-10-21T22:29:38.994Z,97.60
2018-10-21T22:32:08.764Z,97.50
2018-10-21T22:34:38.560Z,97.40
2018-10-21T22:37:08.437Z,97.70
2018-10-21T22:39:38.363Z,97.50
2018-10-21T22:42:08.160Z,98.00
2018-10-21T22:44:38.023Z,98.00
2018-10-21T22:47:07.772Z,98.30
2018-10-21T22:49:37.506Z,98.60
2018-10-21T22:52:07.405Z,98.30
2018-10-21T22:54:37.141Z,98.10
2018-10-21T22:57:12.414Z,98.20
2018-10-21T22:59:42.993Z,98.00
2018-10-21T23:02:13.273Z,97.80
2018-10-21T23:04:43.688Z,97.90
2018-10-21T23:07:13.454Z,97.90
2018-10-21T23:09:43.198Z,99.10
2018-10-21T23:12:13.467Z,99.20
2018-10-21T23:14:43.368Z,99.10
2018-10-21T23:17:13.375Z,99.00
2018-10-21T23:19:47.630Z,98.70
2018-10-21T23:22:17.395Z,98.20
2018-10-21T23:24:46.909Z,98.40
2018-10-21T23:27:17.741Z,97.90
2018-10-21T23:29:47.531Z,97.90
2018-10-21T23:32:17.098Z,97.40
2018-10-21T23:34:46.775Z,97.60
2018-10-21T23:37:16.574Z,98.50
2018-10-21T23:39:46.468Z,98.80
2018-10-21T23:42:16.200Z,99.90
2018-10-21T23:44:46.044Z,99.30
2018-10-21T23:47:15.710Z,98.70
2018-10-21T23:49:45.323Z,98.70
2018-10-21T23:52:15.204Z,98.70
2018-10-21T23:54:45.013Z,99.00
2018-10-21T23:57:14.605Z,99.20
2018-10-21T23:59:44.159Z,99.10
